Terminal Aerodrome Forecast
Issued by NWS

Home | Current Version | Previous Version | Text Only | Print | Product List | Glossary On
Versions: 1 2 3 4 5 6 7 8 9 10 11 12 13 14 15 16 17 18 19 20
000
FTUS41 KOKX 160200 AAA
TAFSWF
TAF AMD
KSWF 160232Z 1603/1706 VRB04KT P6SM FEW060 BKN150
     FM160900 VRB02KT P6SM -SHRA BKN050 OVC150
     FM161400 VRB04KT P6SM BKN070 BKN150
     FM161900 30006KT P6SM SCT070 SCT150
     FM170200 VRB02KT P6SM SKC
      AMD NOT SKED=

USA.gov is the U.S. government's official web portal to all federal, state and local government web resources and services.